This is the latest recevied weather packets stored in our database for station/object KD9CCP. If no packets are shown the sender has not sent any weather packets the latest 1 day(s).
| Time | Temp. | Humidity | Pressure | Rain* | Wind** | Luminosity | Snow |
|---|---|---|---|---|---|---|---|
| 1778018391 | 5° C | 55% | 1010.5 hPa | 0 mm | 0.45 m/s, 351° | 35 W/m² | - |
| 1778018089 | 5° C | 54% | 1010.4 hPa | 0 mm | 0.45 m/s, 347° | 41 W/m² | - |
| 1778017787 | 5° C | 55% | 1010.5 hPa | 0 mm | 0.89 m/s, 353° | 42 W/m² | - |
| 1778017485 | 5° C | 55% | 1010.5 hPa | 0 mm | 0.45 m/s, 350° | 46 W/m² | - |
| 1778017181 | 5° C | 60% | 1010.3 hPa | 0 mm | 0 m/s | 47 W/m² | - |
| 1778016879 | 5° C | 58% | 1010.4 hPa | 0 mm | 0.45 m/s, 353° | 52 W/m² | - |
| 1778016575 | 5° C | 59% | 1010.4 hPa | 0 mm | 2.68 m/s, 293° | 46 W/m² | - |
| 1778016272 | 5° C | 53% | 1010.4 hPa | 0 mm | 1.34 m/s, 26° | 45 W/m² | - |
| 1778015968 | 5.56° C | 57% | 1010.1 hPa | 0 mm | 1.34 m/s, 315° | 52 W/m² | - |
| 1778015666 | 5° C | 56% | 1010.4 hPa | 0 mm | 1.34 m/s, 330° | 64 W/m² | - |
| 1778015362 | 5° C | 56% | 1010.3 hPa | 0 mm | 1.34 m/s, 7° | 74 W/m² | - |
| 1778015063 | 5.56° C | 54% | 1010.4 hPa | 0 mm | 0 m/s | 60 W/m² | - |
| 1778014756 | 5° C | 56% | 1010.4 hPa | 0 mm | 1.34 m/s, 356° | 67 W/m² | - |
| 1778014455 | 5° C | 57% | 1010.1 hPa | 0 mm | 2.24 m/s, 295° | 64 W/m² | - |
| 1778014151 | 5° C | 59% | 1010.1 hPa | 0 mm | 2.68 m/s, 196° | 81 W/m² | - |
| 1778013849 | 5° C | 62% | 1010.3 hPa | 0 mm | 2.68 m/s, 261° | 61 W/m² | - |
| 1778013546 | 5° C | 57% | 1010.4 hPa | 0 mm | 0.45 m/s, 341° | 59 W/m² | - |
| 1778013242 | 5° C | 55% | 1010.3 hPa | 0 mm | 1.34 m/s, 345° | 61 W/m² | - |
| 1778012939 | 5.56° C | 62% | 1010.1 hPa | 0 mm | 2.68 m/s, 249° | 73 W/m² | - |
| 1778012635 | 5.56° C | 55% | 1010 hPa | 0 mm | 0.89 m/s, 353° | 68 W/m² | - |
| 1778012332 | 5° C | 59% | 1010 hPa | 0 mm | 0.89 m/s, 336° | 80 W/m² | - |
| 1778012029 | 5° C | 57% | 1010.1 hPa | 0 mm | 1.79 m/s, 298° | 75 W/m² | - |
| 1778011727 | 5° C | 57% | 1010.1 hPa | 0 mm | 0 m/s | 69 W/m² | - |
| 1778011424 | 5.56° C | 57% | 1009.9 hPa | 0 mm | 2.24 m/s, 335° | 86 W/m² | - |
| 1778011119 | 5° C | 57% | 1009.9 hPa | 0 mm | 1.34 m/s, 268° | 66 W/m² | - |
* Rain latest hour (hover to see other rain measurements)
** Current wind speed in m/s (hover to see current wind gust speed)